SAS4173 ENVA-ENAL
Flight info
| Callsign | SAS4173 |
|---|---|
| Flight time | 0h 32m |
| Altitude | 22000 |
| Route | GOGOX DCT DEKEB |
| Aircraft | A320/M-SDE3FGHIRWY/LB1 |
Departure
| Time | 2026-05-05 16:02 |
|---|---|
| Airport | Trondheim Airport, Værnes (ENVA) |
Arrival
| Time | 2026-05-05 16:35 |
|---|---|
| Airport | Ålesund Airport (ENAL) |
| Time | Latitude | Longitude | Altitude | Speed | Heading |
|---|---|---|---|---|---|
| 2026-05-05 15:37 | 63.45498 | 10.91664 | 39 ft | 0 kts | 180° |
| 2026-05-05 15:52 | 63.45499 | 10.91664 | 39 ft | 0 kts | 180° |
| 2026-05-05 15:54 | 63.45505 | 10.91663 | 39 ft | 4 kts | 179° |
| 2026-05-05 15:55 | 63.45532 | 10.91661 | 39 ft | 4 kts | 175° |
| 2026-05-05 15:55 | 63.45559 | 10.91654 | 37 ft | 4 kts | 167° |
| 2026-05-05 15:55 | 63.45584 | 10.91635 | 36 ft | 4 kts | 143° |
| 2026-05-05 15:55 | 63.45596 | 10.91601 | 35 ft | 1 kts | 90° |
| 2026-05-05 15:56 | 63.45596 | 10.91590 | 35 ft | 1 kts | 90° |
| 2026-05-05 15:58 | 63.45595 | 10.91658 | 36 ft | 11 kts | 90° |
| 2026-05-05 15:58 | 63.45595 | 10.91879 | 40 ft | 16 kts | 90° |
| 2026-05-05 15:58 | 63.45594 | 10.92134 | 41 ft | 18 kts | 90° |
| 2026-05-05 15:58 | 63.45593 | 10.92426 | 42 ft | 19 kts | 90° |
| 2026-05-05 15:59 | 63.45594 | 10.92675 | 44 ft | 15 kts | 89° |
| 2026-05-05 15:59 | 63.45595 | 10.92900 | 47 ft | 15 kts | 91° |
| 2026-05-05 15:59 | 63.45593 | 10.93127 | 51 ft | 15 kts | 90° |
| 2026-05-05 15:59 | 63.45592 | 10.93360 | 54 ft | 15 kts | 90° |
| 2026-05-05 16:00 | 63.45592 | 10.93545 | 54 ft | 10 kts | 90° |
| 2026-05-05 16:00 | 63.45592 | 10.93708 | 54 ft | 11 kts | 89° |
| 2026-05-05 16:00 | 63.45616 | 10.93879 | 53 ft | 13 kts | 55° |
| 2026-05-05 16:00 | 63.45685 | 10.94039 | 60 ft | 16 kts | 44° |
| 2026-05-05 16:01 | 63.45744 | 10.94116 | 61 ft | 9 kts | 352° |
| 2026-05-05 16:01 | 63.45758 | 10.93971 | 59 ft | 12 kts | 271° |
| 2026-05-05 16:01 | 63.45758 | 10.93744 | 57 ft | 18 kts | 270° |
| 2026-05-05 16:01 | 63.45759 | 10.93150 | 50 ft | 69 kts | 270° |
| 2026-05-05 16:02 | 63.45761 | 10.91618 | 39 ft | 125 kts | 270° |
| 2026-05-05 16:02 | 63.45788 | 10.89612 | 549 ft | 124 kts | 273° |
| 2026-05-05 16:02 | 63.45848 | 10.87699 | 1116 ft | 124 kts | 273° |
| 2026-05-05 16:02 | 63.45892 | 10.85531 | 1184 ft | 161 kts | 272° |
| 2026-05-05 16:03 | 63.45907 | 10.82722 | 1357 ft | 197 kts | 269° |
| 2026-05-05 16:03 | 63.45864 | 10.79492 | 1898 ft | 221 kts | 268° |
| 2026-05-05 16:03 | 63.45772 | 10.75896 | 2549 ft | 237 kts | 267° |
| 2026-05-05 16:03 | 63.45643 | 10.72233 | 3683 ft | 236 kts | 266° |
| 2026-05-05 16:04 | 63.45488 | 10.68605 | 4850 ft | 234 kts | 266° |
| 2026-05-05 16:04 | 63.45443 | 10.64909 | 5724 ft | 242 kts | 272° |
| 2026-05-05 16:04 | 63.45515 | 10.61118 | 6635 ft | 247 kts | 274° |
| 2026-05-05 16:04 | 63.45602 | 10.57260 | 7554 ft | 250 kts | 273° |
| 2026-05-05 16:05 | 63.45669 | 10.53354 | 8476 ft | 254 kts | 271° |
| 2026-05-05 16:05 | 63.45508 | 10.49387 | 9349 ft | 260 kts | 261° |
| 2026-05-05 16:05 | 63.45180 | 10.45385 | 10173 ft | 266 kts | 260° |
| 2026-05-05 16:05 | 63.44807 | 10.41157 | 10487 ft | 288 kts | 260° |
| 2026-05-05 16:06 | 63.44396 | 10.36670 | 11039 ft | 299 kts | 259° |
| 2026-05-05 16:06 | 63.43969 | 10.32096 | 11804 ft | 303 kts | 259° |
| 2026-05-05 16:06 | 63.43534 | 10.27454 | 12592 ft | 307 kts | 259° |
| 2026-05-05 16:06 | 63.43093 | 10.22757 | 13369 ft | 310 kts | 259° |
| 2026-05-05 16:07 | 63.42648 | 10.18018 | 14104 ft | 314 kts | 259° |
| 2026-05-05 16:07 | 63.42196 | 10.13217 | 14806 ft | 317 kts | 259° |
| 2026-05-05 16:07 | 63.41738 | 10.08373 | 15483 ft | 321 kts | 259° |
| 2026-05-05 16:07 | 63.41275 | 10.03488 | 16164 ft | 324 kts | 259° |
| 2026-05-05 16:08 | 63.40804 | 9.98537 | 16815 ft | 328 kts | 259° |
| 2026-05-05 16:08 | 63.40329 | 9.93538 | 17458 ft | 332 kts | 259° |
| 2026-05-05 16:08 | 63.39844 | 9.88451 | 18064 ft | 337 kts | 259° |
| 2026-05-05 16:08 | 63.39352 | 9.83335 | 18760 ft | 338 kts | 259° |
| 2026-05-05 16:09 | 63.38855 | 9.78191 | 19407 ft | 340 kts | 259° |
| 2026-05-05 16:09 | 63.38354 | 9.73010 | 20010 ft | 344 kts | 258° |
| 2026-05-05 16:09 | 63.37771 | 9.67789 | 20601 ft | 349 kts | 256° |
| 2026-05-05 16:09 | 63.37096 | 9.62547 | 21127 ft | 354 kts | 255° |
| 2026-05-05 16:10 | 63.36378 | 9.57345 | 21696 ft | 358 kts | 255° |
| 2026-05-05 16:10 | 63.35621 | 9.51966 | 21877 ft | 358 kts | 255° |
| 2026-05-05 16:10 | 63.34902 | 9.46838 | 21904 ft | 347 kts | 255° |
| 2026-05-05 16:10 | 63.34193 | 9.41722 | 21902 ft | 346 kts | 255° |
| 2026-05-05 16:11 | 63.33493 | 9.36602 | 21909 ft | 345 kts | 255° |
| 2026-05-05 16:11 | 63.31421 | 9.21310 | 21905 ft | 344 kts | 255° |
| 2026-05-05 16:12 | 63.30720 | 9.16219 | 21910 ft | 345 kts | 255° |
| 2026-05-05 16:12 | 63.29313 | 9.06025 | 21921 ft | 344 kts | 255° |
| 2026-05-05 16:13 | 63.27261 | 8.90722 | 21919 ft | 345 kts | 255° |
| 2026-05-05 16:13 | 63.26797 | 8.87273 | 21924 ft | 345 kts | 255° |
| 2026-05-05 16:13 | 63.26168 | 8.82139 | 21927 ft | 344 kts | 261° |
| 2026-05-05 16:14 | 63.25803 | 8.71596 | 21931 ft | 343 kts | 268° |
| 2026-05-05 16:14 | 63.25560 | 8.61088 | 21919 ft | 343 kts | 268° |
| 2026-05-05 16:15 | 63.25301 | 8.50509 | 21935 ft | 343 kts | 268° |
| 2026-05-05 16:15 | 63.25022 | 8.39950 | 21937 ft | 343 kts | 268° |
| 2026-05-05 16:16 | 63.24702 | 8.29445 | 21706 ft | 337 kts | 265° |
| 2026-05-05 16:16 | 63.24107 | 8.19378 | 21144 ft | 323 kts | 263° |
| 2026-05-05 16:17 | 63.23446 | 8.09620 | 20595 ft | 318 kts | 263° |
| 2026-05-05 16:17 | 63.23128 | 8.04774 | 20323 ft | 317 kts | 263° |
| 2026-05-05 16:18 | 63.22510 | 7.95153 | 19788 ft | 314 kts | 263° |
| 2026-05-05 16:18 | 63.22203 | 7.90374 | 19525 ft | 312 kts | 263° |
| 2026-05-05 16:18 | 63.21598 | 7.80915 | 18990 ft | 307 kts | 262° |
| 2026-05-05 16:19 | 63.21061 | 7.76360 | 18745 ft | 304 kts | 250° |
| 2026-05-05 16:19 | 63.20203 | 7.72116 | 18419 ft | 301 kts | 246° |
| 2026-05-05 16:19 | 63.18442 | 7.63777 | 17628 ft | 296 kts | 246° |
| 2026-05-05 16:20 | 63.16713 | 7.55590 | 16886 ft | 291 kts | 246° |
| 2026-05-05 16:20 | 63.15001 | 7.47542 | 16159 ft | 288 kts | 247° |
| 2026-05-05 16:21 | 63.13153 | 7.39748 | 15440 ft | 287 kts | 235° |
| 2026-05-05 16:22 | 63.08955 | 7.30303 | 14356 ft | 286 kts | 227° |
| 2026-05-05 16:22 | 63.06144 | 7.24191 | 13638 ft | 285 kts | 227° |
| 2026-05-05 16:23 | 63.03310 | 7.18069 | 12892 ft | 282 kts | 227° |
| 2026-05-05 16:23 | 63.01932 | 7.15100 | 12538 ft | 280 kts | 227° |
| 2026-05-05 16:23 | 62.99168 | 7.09140 | 11830 ft | 277 kts | 227° |
| 2026-05-05 16:24 | 62.97798 | 7.06189 | 11477 ft | 275 kts | 227° |
| 2026-05-05 16:24 | 62.96432 | 7.03252 | 11130 ft | 274 kts | 227° |
| 2026-05-05 16:24 | 62.93713 | 6.97431 | 10425 ft | 271 kts | 227° |
| 2026-05-05 16:25 | 62.92364 | 6.94548 | 10082 ft | 270 kts | 227° |
| 2026-05-05 16:25 | 62.89687 | 6.88849 | 9385 ft | 261 kts | 227° |
| 2026-05-05 16:25 | 62.88395 | 6.86108 | 9005 ft | 258 kts | 227° |
| 2026-05-05 16:26 | 62.85836 | 6.80681 | 8374 ft | 255 kts | 227° |
| 2026-05-05 16:26 | 62.83301 | 6.75312 | 7770 ft | 252 kts | 227° |
| 2026-05-05 16:27 | 62.82054 | 6.72677 | 7422 ft | 245 kts | 228° |
| 2026-05-05 16:27 | 62.80846 | 6.70129 | 7086 ft | 239 kts | 227° |
| 2026-05-05 16:27 | 62.79662 | 6.67644 | 6744 ft | 231 kts | 227° |
| 2026-05-05 16:27 | 62.78512 | 6.65242 | 6408 ft | 228 kts | 227° |
| 2026-05-05 16:28 | 62.77375 | 6.62856 | 6055 ft | 226 kts | 227° |
| 2026-05-05 16:28 | 62.76250 | 6.60491 | 5708 ft | 224 kts | 227° |
| 2026-05-05 16:28 | 62.75126 | 6.58145 | 5360 ft | 223 kts | 227° |
| 2026-05-05 16:28 | 62.73985 | 6.55879 | 5014 ft | 221 kts | 226° |
| 2026-05-05 16:29 | 62.72838 | 6.53657 | 4707 ft | 220 kts | 225° |
| 2026-05-05 16:29 | 62.71701 | 6.51470 | 4402 ft | 214 kts | 225° |
| 2026-05-05 16:29 | 62.70600 | 6.49360 | 4101 ft | 210 kts | 225° |
| 2026-05-05 16:29 | 62.69512 | 6.47269 | 3808 ft | 208 kts | 225° |
| 2026-05-05 16:30 | 62.68446 | 6.45217 | 3524 ft | 202 kts | 225° |
| 2026-05-05 16:30 | 62.67305 | 6.43429 | 3221 ft | 202 kts | 219° |
| 2026-05-05 16:30 | 62.66233 | 6.41520 | 3023 ft | 197 kts | 225° |
| 2026-05-05 16:30 | 62.65275 | 6.39540 | 2997 ft | 181 kts | 232° |
| 2026-05-05 16:31 | 62.64573 | 6.37397 | 3031 ft | 171 kts | 237° |
| 2026-05-05 16:31 | 62.63885 | 6.35292 | 2726 ft | 170 kts | 235° |
| 2026-05-05 16:31 | 62.63195 | 6.33259 | 2444 ft | 161 kts | 235° |
| 2026-05-05 16:31 | 62.62597 | 6.31517 | 2227 ft | 151 kts | 234° |
| 2026-05-05 16:32 | 62.62008 | 6.29806 | 2027 ft | 145 kts | 235° |
| 2026-05-05 16:32 | 62.61406 | 6.28064 | 1799 ft | 143 kts | 235° |
| 2026-05-05 16:32 | 62.60810 | 6.26381 | 1527 ft | 138 kts | 232° |
| 2026-05-05 16:32 | 62.60212 | 6.24789 | 1362 ft | 134 kts | 232° |
| 2026-05-05 16:33 | 62.59632 | 6.23232 | 1160 ft | 132 kts | 232° |
| 2026-05-05 16:33 | 62.59052 | 6.21697 | 872 ft | 131 kts | 232° |
| 2026-05-05 16:33 | 62.58511 | 6.20159 | 691 ft | 129 kts | 236° |
| 2026-05-05 16:33 | 62.57977 | 6.18617 | 755 ft | 132 kts | 233° |
| 2026-05-05 16:34 | 62.57435 | 6.16969 | 468 ft | 133 kts | 237° |
| 2026-05-05 16:34 | 62.57000 | 6.15264 | 350 ft | 128 kts | 240° |
| 2026-05-05 16:34 | 62.56599 | 6.13537 | 163 ft | 128 kts | 242° |
| 2026-05-05 16:34 | 62.56220 | 6.11795 | 90 ft | 128 kts | 242° |
| 2026-05-05 16:35 | 62.55887 | 6.10285 | 58 ft | 83 kts | 244° |
| 2026-05-05 16:35 | 62.55737 | 6.09564 | 46 ft | 24 kts | 245° |
| 2026-05-05 16:35 | 62.55659 | 6.09228 | 40 ft | 17 kts | 243° |
| 2026-05-05 16:35 | 62.55604 | 6.09115 | 41 ft | 7 kts | 211° |
| 2026-05-05 16:36 | 62.55607 | 6.09054 | 41 ft | 6 kts | 1° |
| 2026-05-05 16:36 | 62.55632 | 6.09148 | 41 ft | 9 kts | 65° |
| 2026-05-05 16:36 | 62.55680 | 6.09372 | 43 ft | 24 kts | 64° |
| 2026-05-05 16:36 | 62.55756 | 6.09713 | 51 ft | 25 kts | 64° |
| 2026-05-05 16:37 | 62.55835 | 6.10078 | 55 ft | 28 kts | 65° |
| 2026-05-05 16:37 | 62.55917 | 6.10457 | 68 ft | 24 kts | 65° |
| 2026-05-05 16:37 | 62.55946 | 6.10607 | 68 ft | 7 kts | 77° |
| 2026-05-05 16:37 | 62.55946 | 6.10702 | 72 ft | 5 kts | 102° |
| 2026-05-05 16:38 | 62.55938 | 6.10764 | 69 ft | 5 kts | 105° |
| 2026-05-05 16:38 | 62.55917 | 6.10935 | 79 ft | 15 kts | 104° |
| 2026-05-05 16:38 | 62.55903 | 6.11133 | 83 ft | 9 kts | 82° |
| 2026-05-05 16:38 | 62.55929 | 6.11276 | 82 ft | 12 kts | 62° |
| 2026-05-05 16:39 | 62.55963 | 6.11425 | 83 ft | 6 kts | 66° |
| 2026-05-05 16:39 | 62.55971 | 6.11509 | 83 ft | 5 kts | 115° |
| 2026-05-05 16:39 | 62.55941 | 6.11544 | 79 ft | 2 kts | 156° |
| 2026-05-05 16:39 | 62.55929 | 6.11557 | 80 ft | 0 kts | 155° |
| 2026-05-05 16:40 | 62.55929 | 6.11556 | 79 ft | 0 kts | 155° |